sensor_id;sensor_type;location;lat;lon;timestamp;P1;durP1;ratioP1;P2;durP2;ratioP2
3677;SDS011;1855;50.934;6.958;2022-07-10T00:00:39;2.93;;;1.73;;
3677;SDS011;1855;50.934;6.958;2022-07-10T00:03:08;4.32;;;1.85;;
3677;SDS011;1855;50.934;6.958;2022-07-10T00:05:35;4.38;;;2.15;;
3677;SDS011;1855;50.934;6.958;2022-07-10T00:08:02;4.47;;;2.17;;
3677;SDS011;1855;50.934;6.958;2022-07-10T00:10:30;4.03;;;1.75;;
3677;SDS011;1855;50.934;6.958;2022-07-10T00:12:58;3.60;;;2.10;;
3677;SDS011;1855;50.934;6.958;2022-07-10T00:15:25;3.65;;;1.90;;
3677;SDS011;1855;50.934;6.958;2022-07-10T00:17:52;3.65;;;2.08;;
3677;SDS011;1855;50.934;6.958;2022-07-10T00:20:21;4.30;;;2.00;;
3677;SDS011;1855;50.934;6.958;2022-07-10T00:22:48;2.83;;;1.80;;
3677;SDS011;1855;50.934;6.958;2022-07-10T00:25:15;4.72;;;2.00;;
3677;SDS011;1855;50.934;6.958;2022-07-10T00:27:42;4.75;;;1.77;;
3677;SDS011;1855;50.934;6.958;2022-07-10T00:30:10;5.35;;;1.90;;
3677;SDS011;1855;50.934;6.958;2022-07-10T00:32:37;3.88;;;1.83;;
3677;SDS011;1855;50.934;6.958;2022-07-10T00:35:04;3.15;;;1.98;;
3677;SDS011;1855;50.934;6.958;2022-07-10T00:37:33;3.30;;;1.80;;
3677;SDS011;1855;50.934;6.958;2022-07-10T00:40:01;4.10;;;1.80;;
3677;SDS011;1855;50.934;6.958;2022-07-10T00:42:29;3.90;;;2.10;;
3677;SDS011;1855;50.934;6.958;2022-07-10T00:44:56;3.35;;;1.83;;
3677;SDS011;1855;50.934;6.958;2022-07-10T00:47:23;4.15;;;2.00;;
3677;SDS011;1855;50.934;6.958;2022-07-10T00:49:51;3.83;;;1.90;;
3677;SDS011;1855;50.934;6.958;2022-07-10T00:52:18;4.32;;;1.70;;
3677;SDS011;1855;50.934;6.958;2022-07-10T00:54:48;4.88;;;1.83;;
3677;SDS011;1855;50.934;6.958;2022-07-10T00:57:16;3.50;;;2.00;;
3677;SDS011;1855;50.934;6.958;2022-07-10T00:59:44;3.60;;;2.03;;
3677;SDS011;1855;50.934;6.958;2022-07-10T01:02:11;3.42;;;1.85;;
3677;SDS011;1855;50.934;6.958;2022-07-10T01:04:38;4.63;;;1.80;;
3677;SDS011;1855;50.934;6.958;2022-07-10T01:07:05;4.82;;;2.10;;
3677;SDS011;1855;50.934;6.958;2022-07-10T01:09:32;3.10;;;1.73;;
3677;SDS011;1855;50.934;6.958;2022-07-10T01:12:01;5.50;;;2.25;;
3677;SDS011;1855;50.934;6.958;2022-07-10T01:14:28;4.00;;;2.10;;
3677;SDS011;1855;50.934;6.958;2022-07-10T01:16:56;5.28;;;1.83;;
3677;SDS011;1855;50.934;6.958;2022-07-10T01:19:23;3.13;;;1.80;;
3677;SDS011;1855;50.934;6.958;2022-07-10T01:21:51;3.35;;;1.90;;
3677;SDS011;1855;50.934;6.958;2022-07-10T01:24:18;3.88;;;2.00;;
3677;SDS011;1855;50.934;6.958;2022-07-10T01:26:46;2.72;;;1.85;;
3677;SDS011;1855;50.934;6.958;2022-07-10T01:29:13;4.90;;;1.80;;
3677;SDS011;1855;50.934;6.958;2022-07-10T01:31:40;3.72;;;2.10;;
3677;SDS011;1855;50.934;6.958;2022-07-10T01:34:08;5.10;;;2.00;;
3677;SDS011;1855;50.934;6.958;2022-07-10T01:36:35;3.95;;;1.90;;
3677;SDS011;1855;50.934;6.958;2022-07-10T01:39:04;2.22;;;1.60;;
3677;SDS011;1855;50.934;6.958;2022-07-10T01:41:31;4.78;;;1.90;;
3677;SDS011;1855;50.934;6.958;2022-07-10T01:43:58;5.77;;;2.30;;
3677;SDS011;1855;50.934;6.958;2022-07-10T01:46:26;3.72;;;1.88;;
3677;SDS011;1855;50.934;6.958;2022-07-10T01:48:53;3.75;;;1.90;;
3677;SDS011;1855;50.934;6.958;2022-07-10T01:51:20;5.07;;;2.40;;
3677;SDS011;1855;50.934;6.958;2022-07-10T01:53:48;4.25;;;2.03;;
3677;SDS011;1855;50.934;6.958;2022-07-10T01:56:16;3.23;;;1.70;;
3677;SDS011;1855;50.934;6.958;2022-07-10T01:58:43;4.00;;;2.00;;
3677;SDS011;1855;50.934;6.958;2022-07-10T02:01:11;5.93;;;1.90;;
3677;SDS011;1855;50.934;6.958;2022-07-10T02:03:38;4.05;;;1.75;;
3677;SDS011;1855;50.934;6.958;2022-07-10T02:06:23;3.17;;;1.77;;
3677;SDS011;1855;50.934;6.958;2022-07-10T02:08:50;3.78;;;1.70;;
3677;SDS011;1855;50.934;6.958;2022-07-10T02:11:19;4.22;;;1.92;;
3677;SDS011;1855;50.934;6.958;2022-07-10T02:13:46;2.53;;;1.50;;
3677;SDS011;1855;50.934;6.958;2022-07-10T02:16:13;5.43;;;1.80;;
3677;SDS011;1855;50.934;6.958;2022-07-10T02:18:40;3.80;;;1.87;;
3677;SDS011;1855;50.934;6.958;2022-07-10T02:21:07;5.40;;;2.00;;
3677;SDS011;1855;50.934;6.958;2022-07-10T02:23:35;4.38;;;1.80;;
3677;SDS011;1855;50.934;6.958;2022-07-10T02:26:04;3.83;;;1.90;;
3677;SDS011;1855;50.934;6.958;2022-07-10T02:28:32;4.63;;;1.80;;
3677;SDS011;1855;50.934;6.958;2022-07-10T02:31:00;3.95;;;1.40;;
3677;SDS011;1855;50.934;6.958;2022-07-10T02:33:27;3.70;;;1.60;;
3677;SDS011;1855;50.934;6.958;2022-07-10T02:35:54;2.80;;;1.60;;
3677;SDS011;1855;50.934;6.958;2022-07-10T02:38:21;2.30;;;1.50;;
3677;SDS011;1855;50.934;6.958;2022-07-10T02:40:48;3.13;;;1.58;;
3677;SDS011;1855;50.934;6.958;2022-07-10T02:43:15;3.53;;;1.73;;
3677;SDS011;1855;50.934;6.958;2022-07-10T02:45:44;6.47;;;2.00;;
3677;SDS011;1855;50.934;6.958;2022-07-10T02:48:11;3.97;;;1.70;;
3677;SDS011;1855;50.934;6.958;2022-07-10T02:50:38;2.75;;;1.70;;
3677;SDS011;1855;50.934;6.958;2022-07-10T02:53:05;4.80;;;1.70;;
3677;SDS011;1855;50.934;6.958;2022-07-10T02:55:32;3.70;;;1.60;;
3677;SDS011;1855;50.934;6.958;2022-07-10T02:57:59;5.15;;;1.90;;
3677;SDS011;1855;50.934;6.958;2022-07-10T03:00:26;2.47;;;1.63;;
3677;SDS011;1855;50.934;6.958;2022-07-10T03:02:55;4.20;;;1.77;;
3677;SDS011;1855;50.934;6.958;2022-07-10T03:05:22;3.85;;;1.50;;
3677;SDS011;1855;50.934;6.958;2022-07-10T03:07:49;3.70;;;1.80;;
3677;SDS011;1855;50.934;6.958;2022-07-10T03:10:16;4.15;;;1.80;;
3677;SDS011;1855;50.934;6.958;2022-07-10T03:12:44;3.15;;;1.95;;
3677;SDS011;1855;50.934;6.958;2022-07-10T03:15:11;4.15;;;1.90;;
3677;SDS011;1855;50.934;6.958;2022-07-10T03:17:38;4.88;;;1.70;;
3677;SDS011;1855;50.934;6.958;2022-07-10T03:20:07;4.88;;;1.50;;
3677;SDS011;1855;50.934;6.958;2022-07-10T03:22:35;3.80;;;1.60;;
3677;SDS011;1855;50.934;6.958;2022-07-10T03:25:02;5.82;;;1.80;;
3677;SDS011;1855;50.934;6.958;2022-07-10T03:27:29;5.30;;;1.90;;
3677;SDS011;1855;50.934;6.958;2022-07-10T03:29:56;3.70;;;1.90;;
3677;SDS011;1855;50.934;6.958;2022-07-10T03:32:23;4.13;;;1.60;;
3677;SDS011;1855;50.934;6.958;2022-07-10T03:34:51;5.93;;;2.03;;
3677;SDS011;1855;50.934;6.958;2022-07-10T03:37:19;4.00;;;1.80;;
3677;SDS011;1855;50.934;6.958;2022-07-10T03:39:46;3.47;;;1.70;;
3677;SDS011;1855;50.934;6.958;2022-07-10T03:42:13;2.78;;;1.70;;
3677;SDS011;1855;50.934;6.958;2022-07-10T03:44:40;5.00;;;2.03;;
3677;SDS011;1855;50.934;6.958;2022-07-10T03:47:07;4.50;;;1.90;;
3677;SDS011;1855;50.934;6.958;2022-07-10T03:49:35;5.40;;;1.98;;
3677;SDS011;1855;50.934;6.958;2022-07-10T03:52:04;4.13;;;1.80;;
3677;SDS011;1855;50.934;6.958;2022-07-10T03:54:32;4.10;;;1.80;;
3677;SDS011;1855;50.934;6.958;2022-07-10T03:57:00;3.25;;;1.70;;
3677;SDS011;1855;50.934;6.958;2022-07-10T03:59:44;4.07;;;1.67;;
3677;SDS011;1855;50.934;6.958;2022-07-10T04:02:12;5.90;;;1.73;;
3677;SDS011;1855;50.934;6.958;2022-07-10T04:04:39;4.60;;;1.80;;
3677;SDS011;1855;50.934;6.958;2022-07-10T04:07:06;3.53;;;1.63;;
3677;SDS011;1855;50.934;6.958;2022-07-10T04:09:34;2.88;;;1.70;;
3677;SDS011;1855;50.934;6.958;2022-07-10T04:12:01;3.83;;;1.70;;
3677;SDS011;1855;50.934;6.958;2022-07-10T04:14:29;3.95;;;1.80;;
3677;SDS011;1855;50.934;6.958;2022-07-10T04:16:56;3.92;;;1.90;;
3677;SDS011;1855;50.934;6.958;2022-07-10T04:19:23;4.00;;;1.85;;
3677;SDS011;1855;50.934;6.958;2022-07-10T04:21:50;4.05;;;1.80;;
3677;SDS011;1855;50.934;6.958;2022-07-10T04:24:17;3.93;;;1.90;;
3677;SDS011;1855;50.934;6.958;2022-07-10T04:26:45;3.25;;;1.73;;
3677;SDS011;1855;50.934;6.958;2022-07-10T04:29:13;3.35;;;1.70;;
3677;SDS011;1855;50.934;6.958;2022-07-10T04:31:40;3.75;;;2.00;;
3677;SDS011;1855;50.934;6.958;2022-07-10T04:34:07;4.97;;;1.70;;
3677;SDS011;1855;50.934;6.958;2022-07-10T04:36:35;4.43;;;1.70;;
3677;SDS011;1855;50.934;6.958;2022-07-10T04:39:02;3.70;;;1.60;;
3677;SDS011;1855;50.934;6.958;2022-07-10T04:41:29;3.92;;;1.63;;
3677;SDS011;1855;50.934;6.958;2022-07-10T04:43:57;3.97;;;1.65;;
3677;SDS011;1855;50.934;6.958;2022-07-10T04:46:24;3.30;;;1.80;;
3677;SDS011;1855;50.934;6.958;2022-07-10T04:48:52;3.72;;;1.80;;
3677;SDS011;1855;50.934;6.958;2022-07-10T04:51:19;4.45;;;1.90;;
3677;SDS011;1855;50.934;6.958;2022-07-10T04:53:46;4.10;;;1.80;;
3677;SDS011;1855;50.934;6.958;2022-07-10T04:56:13;4.22;;;1.80;;
3677;SDS011;1855;50.934;6.958;2022-07-10T04:58:40;5.72;;;2.00;;
3677;SDS011;1855;50.934;6.958;2022-07-10T05:01:08;4.53;;;2.50;;
3677;SDS011;1855;50.934;6.958;2022-07-10T05:03:36;4.43;;;1.88;;
3677;SDS011;1855;50.934;6.958;2022-07-10T05:06:03;5.05;;;1.80;;
3677;SDS011;1855;50.934;6.958;2022-07-10T05:08:30;3.85;;;2.00;;
3677;SDS011;1855;50.934;6.958;2022-07-10T05:10:57;4.95;;;2.30;;
3677;SDS011;1855;50.934;6.958;2022-07-10T05:13:24;4.90;;;2.15;;
3677;SDS011;1855;50.934;6.958;2022-07-10T05:15:51;5.15;;;2.30;;
3677;SDS011;1855;50.934;6.958;2022-07-10T05:18:20;4.68;;;1.83;;
3677;SDS011;1855;50.934;6.958;2022-07-10T05:20:47;5.93;;;2.28;;
3677;SDS011;1855;50.934;6.958;2022-07-10T05:23:14;3.55;;;2.10;;
3677;SDS011;1855;50.934;6.958;2022-07-10T05:25:41;3.75;;;2.05;;
3677;SDS011;1855;50.934;6.958;2022-07-10T05:28:08;5.15;;;2.20;;
3677;SDS011;1855;50.934;6.958;2022-07-10T05:30:38;4.63;;;2.30;;
3677;SDS011;1855;50.934;6.958;2022-07-10T05:33:05;5.03;;;2.40;;
3677;SDS011;1855;50.934;6.958;2022-07-10T05:35:33;5.72;;;2.30;;
3677;SDS011;1855;50.934;6.958;2022-07-10T05:38:00;4.30;;;2.45;;
3677;SDS011;1855;50.934;6.958;2022-07-10T05:40:28;2.90;;;2.00;;
3677;SDS011;1855;50.934;6.958;2022-07-10T05:42:55;4.25;;;2.40;;
3677;SDS011;1855;50.934;6.958;2022-07-10T05:45:22;4.70;;;2.20;;
3677;SDS011;1855;50.934;6.958;2022-07-10T05:47:49;4.15;;;2.20;;
3677;SDS011;1855;50.934;6.958;2022-07-10T05:50:16;5.60;;;2.00;;
3677;SDS011;1855;50.934;6.958;2022-07-10T05:52:45;3.90;;;1.90;;
3677;SDS011;1855;50.934;6.958;2022-07-10T05:55:12;4.13;;;1.83;;
3677;SDS011;1855;50.934;6.958;2022-07-10T05:57:40;3.67;;;2.00;;
3677;SDS011;1855;50.934;6.958;2022-07-10T06:00:08;4.10;;;1.95;;
3677;SDS011;1855;50.934;6.958;2022-07-10T06:02:35;4.80;;;2.20;;
3677;SDS011;1855;50.934;6.958;2022-07-10T06:05:03;4.20;;;2.10;;
3677;SDS011;1855;50.934;6.958;2022-07-10T06:07:30;4.32;;;2.00;;
3677;SDS011;1855;50.934;6.958;2022-07-10T06:09:59;4.85;;;1.80;;
3677;SDS011;1855;50.934;6.958;2022-07-10T06:12:26;4.22;;;1.70;;
3677;SDS011;1855;50.934;6.958;2022-07-10T06:14:53;4.00;;;1.70;;
3677;SDS011;1855;50.934;6.958;2022-07-10T06:17:20;3.63;;;1.70;;
3677;SDS011;1855;50.934;6.958;2022-07-10T06:19:47;3.20;;;1.60;;
3677;SDS011;1855;50.934;6.958;2022-07-10T06:22:14;4.63;;;1.80;;
3677;SDS011;1855;50.934;6.958;2022-07-10T06:24:59;3.90;;;1.92;;
3677;SDS011;1855;50.934;6.958;2022-07-10T06:27:26;2.95;;;2.00;;
3677;SDS011;1855;50.934;6.958;2022-07-10T06:29:53;3.83;;;1.83;;
3677;SDS011;1855;50.934;6.958;2022-07-10T06:32:21;4.97;;;2.00;;
3677;SDS011;1855;50.934;6.958;2022-07-10T06:34:49;4.78;;;2.08;;
3677;SDS011;1855;50.934;6.958;2022-07-10T06:37:16;3.17;;;1.90;;
3677;SDS011;1855;50.934;6.958;2022-07-10T06:39:44;5.60;;;2.30;;
3677;SDS011;1855;50.934;6.958;2022-07-10T06:42:13;5.90;;;3.25;;
3677;SDS011;1855;50.934;6.958;2022-07-10T06:44:40;5.10;;;2.15;;
3677;SDS011;1855;50.934;6.958;2022-07-10T06:47:07;3.95;;;2.58;;
3677;SDS011;1855;50.934;6.958;2022-07-10T06:49:52;2.93;;;1.90;;
3677;SDS011;1855;50.934;6.958;2022-07-10T06:52:20;3.65;;;1.95;;
3677;SDS011;1855;50.934;6.958;2022-07-10T06:54:47;3.63;;;1.70;;
3677;SDS011;1855;50.934;6.958;2022-07-10T06:57:16;2.90;;;1.83;;
3677;SDS011;1855;50.934;6.958;2022-07-10T06:59:44;3.80;;;1.65;;
3677;SDS011;1855;50.934;6.958;2022-07-10T07:02:11;3.28;;;1.80;;
3677;SDS011;1855;50.934;6.958;2022-07-10T07:04:39;3.83;;;1.60;;
3677;SDS011;1855;50.934;6.958;2022-07-10T07:07:06;4.53;;;1.63;;
3677;SDS011;1855;50.934;6.958;2022-07-10T07:09:33;4.43;;;1.80;;
3677;SDS011;1855;50.934;6.958;2022-07-10T07:12:00;3.17;;;1.80;;
3677;SDS011;1855;50.934;6.958;2022-07-10T07:14:28;5.38;;;2.38;;
3677;SDS011;1855;50.934;6.958;2022-07-10T07:16:56;5.00;;;2.20;;
3677;SDS011;1855;50.934;6.958;2022-07-10T07:19:25;3.88;;;2.03;;
3677;SDS011;1855;50.934;6.958;2022-07-10T07:22:07;4.75;;;2.10;;
3677;SDS011;1855;50.934;6.958;2022-07-10T07:24:51;6.03;;;2.37;;
3677;SDS011;1855;50.934;6.958;2022-07-10T07:27:19;3.80;;;2.20;;
3677;SDS011;1855;50.934;6.958;2022-07-10T07:29:47;3.08;;;2.10;;
3677;SDS011;1855;50.934;6.958;2022-07-10T07:32:14;2.92;;;2.20;;
3677;SDS011;1855;50.934;6.958;2022-07-10T07:34:41;3.80;;;2.00;;
3677;SDS011;1855;50.934;6.958;2022-07-10T07:37:09;4.57;;;1.90;;
3677;SDS011;1855;50.934;6.958;2022-07-10T07:39:36;3.30;;;1.80;;
3677;SDS011;1855;50.934;6.958;2022-07-10T07:42:03;3.08;;;1.73;;
3677;SDS011;1855;50.934;6.958;2022-07-10T07:44:30;3.20;;;2.30;;
3677;SDS011;1855;50.934;6.958;2022-07-10T07:46:59;3.53;;;1.90;;
3677;SDS011;1855;50.934;6.958;2022-07-10T07:49:26;3.42;;;2.10;;
3677;SDS011;1855;50.934;6.958;2022-07-10T07:51:53;4.50;;;2.10;;
3677;SDS011;1855;50.934;6.958;2022-07-10T07:54:20;4.03;;;2.30;;
3677;SDS011;1855;50.934;6.958;2022-07-10T07:56:47;2.63;;;2.20;;
3677;SDS011;1855;50.934;6.958;2022-07-10T07:59:14;4.60;;;2.40;;
3677;SDS011;1855;50.934;6.958;2022-07-10T08:01:42;3.87;;;2.20;;
3677;SDS011;1855;50.934;6.958;2022-07-10T08:04:11;3.10;;;2.13;;
3677;SDS011;1855;50.934;6.958;2022-07-10T08:06:38;4.00;;;2.20;;
3677;SDS011;1855;50.934;6.958;2022-07-10T08:09:05;3.88;;;2.50;;
3677;SDS011;1855;50.934;6.958;2022-07-10T08:11:32;5.45;;;2.40;;
3677;SDS011;1855;50.934;6.958;2022-07-10T08:13:59;4.00;;;2.22;;
3677;SDS011;1855;50.934;6.958;2022-07-10T08:16:27;3.00;;;2.08;;
3677;SDS011;1855;50.934;6.958;2022-07-10T08:18:54;4.75;;;2.20;;
3677;SDS011;1855;50.934;6.958;2022-07-10T08:21:22;3.58;;;1.77;;
3677;SDS011;1855;50.934;6.958;2022-07-10T08:23:49;3.97;;;1.98;;
3677;SDS011;1855;50.934;6.958;2022-07-10T08:26:18;5.25;;;2.40;;
3677;SDS011;1855;50.934;6.958;2022-07-10T08:28:45;3.53;;;2.10;;
3677;SDS011;1855;50.934;6.958;2022-07-10T08:31:12;4.45;;;2.30;;
3677;SDS011;1855;50.934;6.958;2022-07-10T08:33:39;5.30;;;2.70;;
3677;SDS011;1855;50.934;6.958;2022-07-10T08:36:07;4.43;;;2.60;;
3677;SDS011;1855;50.934;6.958;2022-07-10T08:38:35;3.43;;;2.53;;
3677;SDS011;1855;50.934;6.958;2022-07-10T08:41:03;4.63;;;2.17;;
3677;SDS011;1855;50.934;6.958;2022-07-10T08:43:32;4.15;;;2.50;;
3677;SDS011;1855;50.934;6.958;2022-07-10T08:45:59;4.10;;;2.40;;
3677;SDS011;1855;50.934;6.958;2022-07-10T08:48:26;4.93;;;2.60;;
3677;SDS011;1855;50.934;6.958;2022-07-10T08:50:54;4.93;;;3.55;;
3677;SDS011;1855;50.934;6.958;2022-07-10T08:53:23;5.20;;;3.10;;
3677;SDS011;1855;50.934;6.958;2022-07-10T08:55:52;4.60;;;2.58;;
3677;SDS011;1855;50.934;6.958;2022-07-10T08:58:19;3.92;;;2.50;;
3677;SDS011;1855;50.934;6.958;2022-07-10T09:00:46;4.70;;;3.50;;
3677;SDS011;1855;50.934;6.958;2022-07-10T09:03:14;3.78;;;2.65;;
3677;SDS011;1855;50.934;6.958;2022-07-10T09:05:41;4.50;;;2.70;;
3677;SDS011;1855;50.934;6.958;2022-07-10T09:08:20;4.50;;;2.80;;
3677;SDS011;1855;50.934;6.958;2022-07-10T09:10:48;5.03;;;3.50;;
3677;SDS011;1855;50.934;6.958;2022-07-10T09:13:17;4.32;;;2.70;;
3677;SDS011;1855;50.934;6.958;2022-07-10T09:15:47;4.90;;;3.30;;
3677;SDS011;1855;50.934;6.958;2022-07-10T09:18:18;5.18;;;3.10;;
3677;SDS011;1855;50.934;6.958;2022-07-10T09:20:45;4.83;;;3.20;;
3677;SDS011;1855;50.934;6.958;2022-07-10T09:23:14;3.58;;;2.60;;
3677;SDS011;1855;50.934;6.958;2022-07-10T09:25:43;4.00;;;2.40;;
3677;SDS011;1855;50.934;6.958;2022-07-10T09:28:10;4.13;;;2.75;;
3677;SDS011;1855;50.934;6.958;2022-07-10T09:30:39;3.83;;;2.70;;
3677;SDS011;1855;50.934;6.958;2022-07-10T09:33:22;3.40;;;2.43;;
3677;SDS011;1855;50.934;6.958;2022-07-10T09:35:59;4.13;;;2.10;;
3677;SDS011;1855;50.934;6.958;2022-07-10T09:38:47;2.45;;;2.15;;
3677;SDS011;1855;50.934;6.958;2022-07-10T09:41:15;3.50;;;2.60;;
3677;SDS011;1855;50.934;6.958;2022-07-10T09:43:43;3.30;;;2.13;;
3677;SDS011;1855;50.934;6.958;2022-07-10T09:46:12;5.63;;;2.27;;
3677;SDS011;1855;50.934;6.958;2022-07-10T09:48:39;3.20;;;2.20;;
3677;SDS011;1855;50.934;6.958;2022-07-10T09:51:07;3.10;;;1.50;;
3677;SDS011;1855;50.934;6.958;2022-07-10T09:53:36;2.92;;;1.75;;
3677;SDS011;1855;50.934;6.958;2022-07-10T09:56:05;2.05;;;1.40;;
3677;SDS011;1855;50.934;6.958;2022-07-10T09:58:33;2.72;;;1.30;;
3677;SDS011;1855;50.934;6.958;2022-07-10T10:01:01;3.10;;;1.67;;
3677;SDS011;1855;50.934;6.958;2022-07-10T10:03:31;2.20;;;1.48;;
3677;SDS011;1855;50.934;6.958;2022-07-10T10:06:01;2.90;;;1.50;;
3677;SDS011;1855;50.934;6.958;2022-07-10T10:08:29;3.42;;;2.10;;
3677;SDS011;1855;50.934;6.958;2022-07-10T10:10:57;2.70;;;1.95;;
3677;SDS011;1855;50.934;6.958;2022-07-10T10:13:27;2.35;;;1.60;;
3677;SDS011;1855;50.934;6.958;2022-07-10T10:15:55;2.80;;;1.90;;
3677;SDS011;1855;50.934;6.958;2022-07-10T10:18:23;3.63;;;2.38;;
3677;SDS011;1855;50.934;6.958;2022-07-10T10:20:52;3.70;;;2.40;;
3677;SDS011;1855;50.934;6.958;2022-07-10T10:23:19;3.55;;;2.13;;
3677;SDS011;1855;50.934;6.958;2022-07-10T10:25:46;2.60;;;1.95;;
3677;SDS011;1855;50.934;6.958;2022-07-10T10:28:13;2.42;;;1.90;;
3677;SDS011;1855;50.934;6.958;2022-07-10T10:30:43;3.70;;;1.90;;
3677;SDS011;1855;50.934;6.958;2022-07-10T10:35:57;2.72;;;1.40;;
3677;SDS011;1855;50.934;6.958;2022-07-10T10:38:25;3.35;;;1.77;;
3677;SDS011;1855;50.934;6.958;2022-07-10T10:41:24;2.10;;;1.50;;
3677;SDS011;1855;50.934;6.958;2022-07-10T10:46:35;2.88;;;1.77;;
3677;SDS011;1855;50.934;6.958;2022-07-10T10:49:03;3.28;;;1.60;;
3677;SDS011;1855;50.934;6.958;2022-07-10T10:54:14;3.70;;;1.70;;
3677;SDS011;1855;50.934;6.958;2022-07-10T10:56:42;4.30;;;1.75;;
3677;SDS011;1855;50.934;6.958;2022-07-10T10:59:09;4.10;;;1.63;;
3677;SDS011;1855;50.934;6.958;2022-07-10T11:01:36;3.45;;;1.60;;
3677;SDS011;1855;50.934;6.958;2022-07-10T11:04:14;3.22;;;1.70;;
3677;SDS011;1855;50.934;6.958;2022-07-10T11:06:43;2.50;;;1.40;;
3677;SDS011;1855;50.934;6.958;2022-07-10T11:09:25;4.85;;;1.95;;
3677;SDS011;1855;50.934;6.958;2022-07-10T11:12:02;2.20;;;1.55;;
3677;SDS011;1855;50.934;6.958;2022-07-10T11:14:30;2.92;;;1.80;;
3677;SDS011;1855;50.934;6.958;2022-07-10T11:16:58;1.90;;;1.50;;
3677;SDS011;1855;50.934;6.958;2022-07-10T11:19:25;4.43;;;1.77;;
3677;SDS011;1855;50.934;6.958;2022-07-10T11:24:42;2.50;;;1.70;;
3677;SDS011;1855;50.934;6.958;2022-07-10T11:27:24;2.42;;;1.60;;
3677;SDS011;1855;50.934;6.958;2022-07-10T11:29:56;2.85;;;1.40;;
3677;SDS011;1855;50.934;6.958;2022-07-10T11:32:23;3.75;;;1.67;;
3677;SDS011;1855;50.934;6.958;2022-07-10T11:34:50;2.83;;;1.70;;
3677;SDS011;1855;50.934;6.958;2022-07-10T11:37:18;2.27;;;1.17;;
3677;SDS011;1855;50.934;6.958;2022-07-10T11:39:46;1.67;;;1.10;;
3677;SDS011;1855;50.934;6.958;2022-07-10T11:42:14;2.43;;;1.40;;
3677;SDS011;1855;50.934;6.958;2022-07-10T11:44:41;3.30;;;1.30;;
3677;SDS011;1855;50.934;6.958;2022-07-10T11:47:08;1.70;;;1.00;;
3677;SDS011;1855;50.934;6.958;2022-07-10T11:49:43;2.97;;;1.50;;
3677;SDS011;1855;50.934;6.958;2022-07-10T11:52:10;2.50;;;1.60;;
3677;SDS011;1855;50.934;6.958;2022-07-10T11:54:37;1.83;;;1.30;;
3677;SDS011;1855;50.934;6.958;2022-07-10T11:57:08;2.10;;;1.30;;
3677;SDS011;1855;50.934;6.958;2022-07-10T11:59:36;1.70;;;1.10;;
3677;SDS011;1855;50.934;6.958;2022-07-10T12:02:03;2.10;;;1.20;;
3677;SDS011;1855;50.934;6.958;2022-07-10T12:04:31;2.03;;;1.50;;
3677;SDS011;1855;50.934;6.958;2022-07-10T12:06:59;3.30;;;1.80;;
3677;SDS011;1855;50.934;6.958;2022-07-10T12:09:26;2.92;;;1.45;;
3677;SDS011;1855;50.934;6.958;2022-07-10T12:11:59;1.60;;;1.40;;
3677;SDS011;1855;50.934;6.958;2022-07-10T12:14:28;1.65;;;1.40;;
3677;SDS011;1855;50.934;6.958;2022-07-10T12:16:56;2.28;;;1.30;;
3677;SDS011;1855;50.934;6.958;2022-07-10T12:19:24;2.47;;;1.38;;
3677;SDS011;1855;50.934;6.958;2022-07-10T12:21:52;2.23;;;1.40;;
3677;SDS011;1855;50.934;6.958;2022-07-10T12:24:20;2.80;;;2.50;;
3677;SDS011;1855;50.934;6.958;2022-07-10T12:26:48;2.45;;;1.50;;
3677;SDS011;1855;50.934;6.958;2022-07-10T12:29:20;2.20;;;1.90;;
3677;SDS011;1855;50.934;6.958;2022-07-10T12:31:50;2.60;;;1.60;;
3677;SDS011;1855;50.934;6.958;2022-07-10T12:34:17;1.90;;;1.40;;
3677;SDS011;1855;50.934;6.958;2022-07-10T12:36:45;1.95;;;1.42;;
3677;SDS011;1855;50.934;6.958;2022-07-10T12:39:13;3.15;;;1.70;;
3677;SDS011;1855;50.934;6.958;2022-07-10T12:41:53;1.95;;;1.38;;
3677;SDS011;1855;50.934;6.958;2022-07-10T12:44:29;1.38;;;1.20;;
3677;SDS011;1855;50.934;6.958;2022-07-10T12:47:00;1.30;;;1.08;;
3677;SDS011;1855;50.934;6.958;2022-07-10T12:49:28;1.50;;;1.27;;
3677;SDS011;1855;50.934;6.958;2022-07-10T12:51:55;1.63;;;0.90;;
3677;SDS011;1855;50.934;6.958;2022-07-10T12:54:35;2.40;;;1.30;;
3677;SDS011;1855;50.934;6.958;2022-07-10T12:57:02;1.30;;;1.05;;
3677;SDS011;1855;50.934;6.958;2022-07-10T12:59:32;1.57;;;1.40;;
3677;SDS011;1855;50.934;6.958;2022-07-10T13:04:29;2.83;;;1.33;;
3677;SDS011;1855;50.934;6.958;2022-07-10T13:06:58;2.97;;;1.60;;
3677;SDS011;1855;50.934;6.958;2022-07-10T13:09:39;2.30;;;1.42;;
3677;SDS011;1855;50.934;6.958;2022-07-10T13:12:06;3.30;;;1.70;;
3677;SDS011;1855;50.934;6.958;2022-07-10T13:14:33;3.40;;;1.67;;
3677;SDS011;1855;50.934;6.958;2022-07-10T13:17:00;2.05;;;1.85;;
3677;SDS011;1855;50.934;6.958;2022-07-10T13:19:28;2.40;;;1.60;;
3677;SDS011;1855;50.934;6.958;2022-07-10T13:21:56;3.10;;;1.70;;
3677;SDS011;1855;50.934;6.958;2022-07-10T13:24:23;2.38;;;1.45;;
3677;SDS011;1855;50.934;6.958;2022-07-10T13:26:53;1.95;;;1.60;;
3677;SDS011;1855;50.934;6.958;2022-07-10T13:29:21;4.47;;;2.27;;
3677;SDS011;1855;50.934;6.958;2022-07-10T13:31:48;2.72;;;2.10;;
3677;SDS011;1855;50.934;6.958;2022-07-10T13:34:15;2.88;;;2.35;;
3677;SDS011;1855;50.934;6.958;2022-07-10T13:36:42;2.72;;;1.85;;
3677;SDS011;1855;50.934;6.958;2022-07-10T13:39:10;3.05;;;2.10;;
3677;SDS011;1855;50.934;6.958;2022-07-10T13:41:37;2.50;;;1.80;;
3677;SDS011;1855;50.934;6.958;2022-07-10T13:44:04;2.50;;;1.80;;
3677;SDS011;1855;50.934;6.958;2022-07-10T13:46:32;2.85;;;1.90;;
3677;SDS011;1855;50.934;6.958;2022-07-10T13:48:59;2.20;;;1.60;;
3677;SDS011;1855;50.934;6.958;2022-07-10T13:51:26;3.15;;;1.73;;
3677;SDS011;1855;50.934;6.958;2022-07-10T13:53:53;3.25;;;1.80;;
3677;SDS011;1855;50.934;6.958;2022-07-10T13:56:21;4.22;;;2.00;;
3677;SDS011;1855;50.934;6.958;2022-07-10T13:58:50;3.60;;;1.73;;
3677;SDS011;1855;50.934;6.958;2022-07-10T14:01:17;4.00;;;1.70;;
3677;SDS011;1855;50.934;6.958;2022-07-10T14:03:44;2.70;;;2.00;;
3677;SDS011;1855;50.934;6.958;2022-07-10T14:06:12;2.40;;;1.92;;
3677;SDS011;1855;50.934;6.958;2022-07-10T14:08:39;3.00;;;2.00;;
3677;SDS011;1855;50.934;6.958;2022-07-10T14:11:06;3.67;;;1.92;;
3677;SDS011;1855;50.934;6.958;2022-07-10T14:13:35;3.30;;;2.00;;
3677;SDS011;1855;50.934;6.958;2022-07-10T14:16:02;2.73;;;1.60;;
3677;SDS011;1855;50.934;6.958;2022-07-10T14:18:29;4.55;;;2.20;;
3677;SDS011;1855;50.934;6.958;2022-07-10T14:21:04;2.97;;;1.90;;
3677;SDS011;1855;50.934;6.958;2022-07-10T14:23:33;3.05;;;2.20;;
3677;SDS011;1855;50.934;6.958;2022-07-10T14:26:00;4.35;;;1.80;;
3677;SDS011;1855;50.934;6.958;2022-07-10T14:28:28;4.40;;;1.80;;
3677;SDS011;1855;50.934;6.958;2022-07-10T14:30:58;3.83;;;1.80;;
3677;SDS011;1855;50.934;6.958;2022-07-10T14:33:28;3.30;;;1.70;;
3677;SDS011;1855;50.934;6.958;2022-07-10T14:35:55;2.33;;;1.58;;
3677;SDS011;1855;50.934;6.958;2022-07-10T14:38:22;3.00;;;1.75;;
3677;SDS011;1855;50.934;6.958;2022-07-10T14:40:49;3.40;;;1.95;;
3677;SDS011;1855;50.934;6.958;2022-07-10T14:43:18;3.90;;;3.47;;
3677;SDS011;1855;50.934;6.958;2022-07-10T14:45:45;3.13;;;2.83;;
3677;SDS011;1855;50.934;6.958;2022-07-10T14:48:14;2.88;;;2.00;;
3677;SDS011;1855;50.934;6.958;2022-07-10T14:50:41;2.33;;;1.85;;
3677;SDS011;1855;50.934;6.958;2022-07-10T14:53:08;2.42;;;1.80;;
3677;SDS011;1855;50.934;6.958;2022-07-10T14:55:36;3.17;;;1.88;;
3677;SDS011;1855;50.934;6.958;2022-07-10T14:58:03;4.35;;;1.80;;
3677;SDS011;1855;50.934;6.958;2022-07-10T15:00:30;2.47;;;2.03;;
3677;SDS011;1855;50.934;6.958;2022-07-10T15:02:58;3.00;;;1.73;;
3677;SDS011;1855;50.934;6.958;2022-07-10T15:05:27;4.13;;;2.25;;
3677;SDS011;1855;50.934;6.958;2022-07-10T15:07:54;3.38;;;1.90;;
3677;SDS011;1855;50.934;6.958;2022-07-10T15:10:21;2.97;;;1.80;;
3677;SDS011;1855;50.934;6.958;2022-07-10T15:12:48;3.23;;;2.10;;
3677;SDS011;1855;50.934;6.958;2022-07-10T15:15:15;2.53;;;1.80;;
3677;SDS011;1855;50.934;6.958;2022-07-10T15:17:42;3.05;;;2.05;;
3677;SDS011;1855;50.934;6.958;2022-07-10T15:20:10;3.10;;;2.00;;
3677;SDS011;1855;50.934;6.958;2022-07-10T15:22:39;5.93;;;2.33;;
3677;SDS011;1855;50.934;6.958;2022-07-10T15:25:07;3.30;;;2.00;;
3677;SDS011;1855;50.934;6.958;2022-07-10T15:27:34;4.25;;;2.00;;
3677;SDS011;1855;50.934;6.958;2022-07-10T15:30:01;2.70;;;1.92;;
3677;SDS011;1855;50.934;6.958;2022-07-10T15:32:29;2.90;;;2.00;;
3677;SDS011;1855;50.934;6.958;2022-07-10T15:34:56;2.00;;;1.80;;